createdAt,value
2023-04-26T00:00:50.195Z,74.7973
2023-04-26T00:01:51.434Z,74.8024
2023-04-26T00:02:51.374Z,74.8121
2023-04-26T00:03:52.626Z,74.8202
2023-04-26T00:04:53.985Z,74.8266
2023-04-26T00:05:55.039Z,74.8292
2023-04-26T00:06:55.858Z,74.8309
2023-04-26T00:07:56.513Z,74.8334
2023-04-26T00:08:57.150Z,74.8457
2023-04-26T00:09:57.924Z,74.8588
2023-04-26T00:10:58.543Z,74.8734
2023-04-26T00:11:59.199Z,74.8972
2023-04-26T00:13:00.147Z,74.9287
2023-04-26T00:14:00.738Z,74.9577
2023-04-26T00:15:01.820Z,74.9867
2023-04-26T00:16:02.595Z,75.0107
2023-04-26T00:17:03.507Z,75.0313
2023-04-26T00:18:04.317Z,75.0513
2023-04-26T00:19:05.819Z,75.0637
2023-04-26T00:20:06.433Z,75.0762
2023-04-26T00:21:07.131Z,75.0842
2023-04-26T00:22:07.647Z,75.0938
2023-04-26T00:23:08.443Z,75.1056
2023-04-26T00:24:09.294Z,75.1162
2023-04-26T00:25:09.806Z,75.1244
2023-04-26T00:26:10.676Z,75.1389
2023-04-26T00:27:11.000Z,75.1502
2023-04-26T00:28:11.454Z,75.1592
2023-04-26T00:29:12.328Z,75.1886
2023-04-26T00:31:13.032Z,75.2269
2023-04-26T00:32:13.688Z,75.2400
2023-04-26T00:33:14.839Z,75.2568
2023-04-26T00:34:15.322Z,75.2742
2023-04-26T00:35:16.100Z,75.2906
2023-04-26T00:36:16.837Z,75.3150
2023-04-26T00:37:17.271Z,75.3565
2023-04-26T00:38:18.602Z,75.4030
2023-04-26T00:39:19.505Z,75.4502
2023-04-26T00:40:19.731Z,75.4822
2023-04-26T00:41:19.800Z,75.5067
2023-04-26T00:42:21.493Z,75.5292
2023-04-26T00:43:21.871Z,75.5532
2023-04-26T00:44:24.422Z,75.5734
2023-04-26T00:46:24.728Z,75.5950
2023-04-26T00:47:25.405Z,75.6077
2023-04-26T00:48:26.205Z,75.6113
2023-04-26T00:49:26.723Z,75.6183
2023-04-26T00:50:27.526Z,75.6233
2023-04-26T00:51:28.138Z,75.6221
2023-04-26T00:52:28.870Z,75.6202
2023-04-26T00:53:29.664Z,75.6144
2023-04-26T00:54:30.211Z,75.6185
2023-04-26T00:55:32.310Z,75.6151
2023-04-26T00:57:32.175Z,75.6074
2023-04-26T00:58:32.310Z,75.6028
2023-04-26T00:59:35.110Z,75.5947
2023-04-26T01:00:35.601Z,75.5822
2023-04-26T01:01:36.130Z,75.5677
2023-04-26T01:02:36.745Z,75.5542
2023-04-26T01:03:37.505Z,75.5406
2023-04-26T01:04:38.158Z,75.5300
2023-04-26T01:05:39.867Z,75.5167
2023-04-26T01:06:39.835Z,75.5098
2023-04-26T01:07:40.433Z,75.4977
2023-04-26T01:08:41.095Z,75.4819
2023-04-26T01:09:41.929Z,75.4721
2023-04-26T01:10:42.752Z,75.4634
2023-04-26T01:11:43.608Z,75.4517
2023-04-26T01:12:44.296Z,75.4399
2023-04-26T01:13:44.879Z,75.4327
2023-04-26T01:14:45.253Z,75.4272
2023-04-26T01:15:45.991Z,75.4262
2023-04-26T01:16:47.128Z,75.4246
2023-04-26T01:17:48.321Z,75.4244
2023-04-26T01:18:49.221Z,75.4237
2023-04-26T01:19:48.687Z,75.4208
2023-04-26T01:20:48.659Z,75.4144
2023-04-26T01:21:52.254Z,75.4209
2023-04-26T01:22:52.349Z,75.4688
2023-04-26T01:23:52.599Z,75.4720
2023-04-26T01:24:52.844Z,75.4922
2023-04-26T01:25:53.557Z,75.5054
2023-04-26T01:26:53.840Z,75.5235
2023-04-26T01:27:54.335Z,75.5383
2023-04-26T01:29:54.657Z,75.5705
2023-04-26T01:30:55.473Z,75.5930
2023-04-26T01:31:56.408Z,75.6150
2023-04-26T01:32:57.206Z,75.6386
2023-04-26T01:33:57.985Z,75.6693
2023-04-26T01:34:58.654Z,75.6930
2023-04-26T01:35:59.392Z,75.7123
2023-04-26T01:37:00.302Z,75.7290
2023-04-26T01:38:00.851Z,75.7516
2023-04-26T01:39:01.528Z,75.7700
2023-04-26T01:40:02.327Z,75.7863
2023-04-26T01:41:02.912Z,75.8088
2023-04-26T01:42:03.721Z,75.8236
2023-04-26T01:43:04.330Z,75.8340
2023-04-26T01:44:05.312Z,75.8461
2023-04-26T01:45:06.117Z,75.8588
2023-04-26T01:46:06.871Z,75.8714
2023-04-26T01:47:07.080Z,75.8756
2023-04-26T01:48:08.124Z,75.8813
2023-04-26T01:49:08.392Z,75.8886
2023-04-26T01:50:08.630Z,75.9001
2023-04-26T01:51:10.344Z,75.9143
2023-04-26T01:52:09.944Z,75.9212
2023-04-26T01:53:10.649Z,75.9228
2023-04-26T01:54:11.480Z,75.9268
2023-04-26T01:55:12.271Z,75.9361
2023-04-26T01:56:12.975Z,75.9460
2023-04-26T01:57:13.692Z,75.9588
2023-04-26T01:58:14.214Z,75.9681
2023-04-26T01:59:15.381Z,75.9762
2023-04-26T02:00:15.968Z,75.9870
2023-04-26T02:01:16.619Z,75.9942
2023-04-26T02:02:17.676Z,76.0029
2023-04-26T02:03:17.917Z,76.0054
2023-04-26T02:04:18.732Z,76.0107
2023-04-26T02:05:19.534Z,76.0122
2023-04-26T02:06:20.637Z,76.0172
2023-04-26T02:07:21.423Z,76.0232
2023-04-26T02:08:22.145Z,76.0315
2023-04-26T02:09:23.218Z,76.0391
2023-04-26T02:10:24.027Z,76.0478
2023-04-26T02:11:24.494Z,76.0520
2023-04-26T02:12:25.695Z,76.0624
2023-04-26T02:13:26.807Z,76.0736
2023-04-26T02:14:26.500Z,76.0800
2023-04-26T02:15:27.201Z,76.0884
2023-04-26T02:16:28.703Z,76.1045
2023-04-26T02:17:29.634Z,76.1113
2023-04-26T02:18:30.924Z,76.1512
2023-04-26T02:19:31.379Z,76.1402
2023-04-26T02:20:32.026Z,76.1382
2023-04-26T02:21:32.343Z,76.1403
2023-04-26T02:22:33.051Z,76.1403
2023-04-26T02:23:33.740Z,76.1418
2023-04-26T02:24:34.239Z,76.1440
2023-04-26T02:25:35.418Z,76.1501
2023-04-26T02:26:35.344Z,76.1567
2023-04-26T02:27:36.670Z,76.1623
2023-04-26T02:28:37.560Z,76.1668
2023-04-26T02:30:38.498Z,76.1824
2023-04-26T02:31:39.520Z,76.1804
2023-04-26T02:32:39.648Z,76.1784
2023-04-26T02:33:40.213Z,76.1757
2023-04-26T02:34:41.082Z,76.1670
2023-04-26T02:35:41.085Z,76.1619
2023-04-26T02:36:41.629Z,76.1501
2023-04-26T02:37:42.108Z,76.1446
2023-04-26T02:38:42.568Z,76.1455
2023-04-26T02:39:43.664Z,76.1464
2023-04-26T02:40:45.020Z,76.1464
2023-04-26T02:41:49.112Z,76.1457
2023-04-26T02:43:48.401Z,76.1493
2023-04-26T02:44:49.074Z,76.1469
2023-04-26T02:45:49.788Z,76.1476
2023-04-26T02:46:50.372Z,76.1568
2023-04-26T02:47:51.675Z,76.1670
2023-04-26T02:48:51.947Z,76.1772
2023-04-26T02:49:53.609Z,76.1870
2023-04-26T02:51:55.798Z,76.1990
2023-04-26T02:53:55.708Z,76.2053
2023-04-26T02:54:57.125Z,76.2264
2023-04-26T02:56:08.052Z,76.2133
2023-04-26T02:57:09.240Z,76.2379
2023-04-26T02:58:10.464Z,76.2098
2023-04-26T02:59:11.278Z,76.2011
2023-04-26T03:01:14.476Z,76.1911
2023-04-26T03:02:15.937Z,76.1810
2023-04-26T03:04:16.127Z,76.1753
2023-04-26T03:05:15.777Z,76.1639
2023-04-26T03:06:17.069Z,76.1456
2023-04-26T03:07:17.804Z,76.1283
2023-04-26T03:08:19.079Z,76.1152
2023-04-26T03:09:19.636Z,76.1013
2023-04-26T03:10:20.430Z,76.0930
2023-04-26T03:11:21.145Z,76.0789
2023-04-26T03:12:21.783Z,76.0660
2023-04-26T03:13:22.657Z,76.0531
2023-04-26T03:14:23.419Z,76.0410
2023-04-26T03:15:24.150Z,76.0336
2023-04-26T03:16:25.070Z,76.0228
2023-04-26T03:17:26.225Z,76.0189
2023-04-26T03:18:26.420Z,76.0176
2023-04-26T03:19:27.404Z,76.0100
2023-04-26T03:20:28.519Z,76.0014
2023-04-26T03:21:29.372Z,75.9914
2023-04-26T03:22:29.862Z,75.9788
2023-04-26T03:23:30.723Z,75.9708
2023-04-26T03:24:31.167Z,75.9675
2023-04-26T03:25:32.966Z,75.9878
2023-04-26T03:26:33.236Z,75.9606
2023-04-26T03:27:33.181Z,75.9430
2023-04-26T03:28:33.236Z,75.9316
2023-04-26T03:29:33.768Z,75.9195
2023-04-26T03:30:34.480Z,75.9099
2023-04-26T03:31:35.207Z,75.9056
2023-04-26T03:32:35.247Z,75.8967
2023-04-26T03:33:35.913Z,75.8925
2023-04-26T03:34:36.860Z,75.8864
2023-04-26T03:35:37.722Z,75.8786
2023-04-26T03:36:38.431Z,75.8716
2023-04-26T03:37:39.132Z,75.8655
2023-04-26T03:38:39.225Z,75.8665
2023-04-26T03:39:39.985Z,75.8577
2023-04-26T03:40:40.842Z,75.8506
2023-04-26T03:41:41.742Z,75.8434
2023-04-26T03:42:42.735Z,75.8418
2023-04-26T03:43:43.753Z,75.8597
2023-04-26T03:44:44.765Z,75.8630
2023-04-26T03:46:46.332Z,75.8524
2023-04-26T03:47:47.585Z,75.8518
2023-04-26T03:51:09.841Z,75.8445
2023-04-26T03:51:49.544Z,75.8983
2023-04-26T03:52:50.360Z,75.8899
2023-04-26T03:53:50.661Z,75.8699
2023-04-26T03:55:10.892Z,75.8704
2023-04-26T03:55:51.638Z,75.9011
2023-04-26T03:56:51.550Z,75.8985
2023-04-26T03:57:52.393Z,75.8683
2023-04-26T03:58:53.794Z,75.8762
2023-04-26T03:59:55.121Z,75.8855
2023-04-26T04:01:55.839Z,75.8879
2023-04-26T04:02:56.152Z,75.9025
2023-04-26T04:03:56.724Z,75.9242
2023-04-26T04:06:57.850Z,75.9534
2023-04-26T04:07:57.640Z,75.9664
2023-04-26T04:08:58.933Z,75.9742
2023-04-26T04:10:00.677Z,75.9799
2023-04-26T04:11:00.216Z,75.9933
2023-04-26T04:12:01.344Z,75.9990
2023-04-26T04:13:02.399Z,76.0088
2023-04-26T04:14:02.635Z,76.0152
2023-04-26T04:15:03.096Z,76.0206
2023-04-26T04:16:05.169Z,76.0260
2023-04-26T04:17:04.352Z,76.0370
2023-04-26T04:18:06.196Z,76.0437
2023-04-26T04:19:07.452Z,76.0509
2023-04-26T04:20:07.036Z,76.0477
2023-04-26T04:21:07.790Z,76.0461
2023-04-26T04:22:08.514Z,76.0426
2023-04-26T04:23:09.280Z,76.0333
2023-04-26T04:24:10.633Z,76.0211
2023-04-26T04:25:11.746Z,76.0133
2023-04-26T04:26:12.361Z,76.0189
2023-04-26T04:27:12.993Z,76.0231
2023-04-26T04:28:13.245Z,76.0315
2023-04-26T04:29:14.890Z,76.0304
2023-04-26T04:31:15.815Z,76.0355
2023-04-26T04:32:16.539Z,76.0333
2023-04-26T04:33:16.718Z,76.0347
2023-04-26T04:34:17.845Z,76.0312
2023-04-26T04:36:18.474Z,76.0142
2023-04-26T04:37:18.832Z,76.0091
2023-04-26T04:38:20.064Z,76.0111
2023-04-26T04:39:21.007Z,76.0119
2023-04-26T04:40:21.340Z,76.0130
2023-04-26T04:41:43.477Z,76.0083
2023-04-26T04:42:21.882Z,76.0352
2023-04-26T04:43:23.459Z,76.0055
2023-04-26T04:44:24.559Z,75.9916
2023-04-26T04:45:25.098Z,75.9770
2023-04-26T04:46:25.900Z,75.9666
2023-04-26T04:47:28.514Z,75.9545
2023-04-26T04:50:29.404Z,75.9314
2023-04-26T04:52:28.822Z,75.9011
2023-04-26T04:53:29.388Z,75.8850
2023-04-26T04:54:31.138Z,75.8710
2023-04-26T04:55:30.823Z,75.8605
2023-04-26T04:56:32.046Z,75.8470
2023-04-26T04:58:32.395Z,75.8315
2023-04-26T04:59:33.364Z,75.8254
2023-04-26T05:00:35.026Z,75.8128
2023-04-26T05:01:36.184Z,75.8040
2023-04-26T05:02:36.568Z,75.7919
2023-04-26T05:03:38.000Z,75.7759
2023-04-26T05:04:38.226Z,75.7776
2023-04-26T05:05:38.344Z,75.7777
2023-04-26T05:06:39.380Z,75.7727
2023-04-26T05:07:40.026Z,75.7719
2023-04-26T05:08:41.169Z,75.7737
2023-04-26T05:09:42.735Z,75.7667
2023-04-26T05:10:42.872Z,75.7605
2023-04-26T05:11:43.988Z,75.7528
2023-04-26T05:19:53.371Z,75.6538
2023-04-26T05:20:54.137Z,75.6434
2023-04-26T05:21:55.349Z,75.6353
2023-04-26T05:22:56.022Z,75.6264
2023-04-26T05:23:56.226Z,75.6203
2023-04-26T05:24:57.285Z,75.6119
2023-04-26T05:25:57.929Z,75.6023
2023-04-26T05:26:58.636Z,75.5984
2023-04-26T05:27:59.198Z,75.5891
2023-04-26T05:29:00.121Z,75.5812
2023-04-26T05:30:00.811Z,75.5710
2023-04-26T05:31:01.995Z,75.5633
2023-04-26T05:32:03.244Z,75.5548
2023-04-26T05:33:03.264Z,75.5459
2023-04-26T05:34:03.910Z,75.5395
2023-04-26T05:35:04.505Z,75.5352
2023-04-26T05:36:04.851Z,75.5319
2023-04-26T05:37:05.281Z,75.5346
2023-04-26T05:38:06.042Z,75.5327
2023-04-26T05:39:06.618Z,75.5263
2023-04-26T05:40:07.633Z,75.5135
2023-04-26T05:41:08.322Z,75.5002
2023-04-26T05:42:08.661Z,75.4837
2023-04-26T05:43:09.702Z,75.4718
2023-04-26T05:44:10.279Z,75.4550
2023-04-26T05:45:10.997Z,75.4477
2023-04-26T05:46:12.149Z,75.4363
2023-04-26T05:47:13.428Z,75.4292
2023-04-26T05:48:14.266Z,75.4216
2023-04-26T05:49:14.964Z,75.4110
2023-04-26T05:50:15.549Z,75.3956
2023-04-26T05:51:16.682Z,75.3777
2023-04-26T05:52:17.321Z,75.3573
2023-04-26T05:53:17.808Z,75.3327
2023-04-26T05:54:18.198Z,75.3015
2023-04-26T05:55:18.874Z,75.2784
2023-04-26T05:56:19.549Z,75.2533
2023-04-26T05:57:19.782Z,75.2391
2023-04-26T05:58:20.341Z,75.2263
2023-04-26T05:59:21.175Z,75.2193
2023-04-26T06:00:21.906Z,75.2117
2023-04-26T06:01:22.714Z,75.2046
2023-04-26T06:02:24.217Z,75.2003
2023-04-26T06:03:24.265Z,75.1958
2023-04-26T06:04:25.156Z,75.1861
2023-04-26T06:05:25.178Z,75.1669
2023-04-26T06:06:25.851Z,75.1570
2023-04-26T06:07:26.465Z,75.1453
2023-04-26T06:08:27.077Z,75.1328
2023-04-26T06:09:27.238Z,75.1219
2023-04-26T06:10:28.036Z,75.1094
2023-04-26T06:11:28.757Z,75.1006
2023-04-26T06:12:29.513Z,75.0990
2023-04-26T06:13:30.237Z,75.1008
2023-04-26T06:14:31.119Z,75.1017
2023-04-26T06:15:32.163Z,75.1089
2023-04-26T06:16:32.942Z,75.0795
2023-04-26T06:17:34.155Z,75.0461
2023-04-26T06:18:35.165Z,75.0074
2023-04-26T06:19:35.721Z,74.9810
2023-04-26T06:20:36.494Z,74.9600
2023-04-26T06:21:37.319Z,74.9427
2023-04-26T06:22:37.981Z,74.9228
2023-04-26T06:23:39.215Z,74.9152
2023-04-26T06:24:39.798Z,74.9136
2023-04-26T06:25:40.607Z,74.8961
2023-04-26T06:26:41.530Z,74.8867
2023-04-26T06:27:42.153Z,74.8886
2023-04-26T06:28:42.896Z,74.8909
2023-04-26T06:29:43.728Z,74.9107
2023-04-26T06:30:44.637Z,74.9401
2023-04-26T06:31:45.633Z,74.9724
2023-04-26T06:32:46.762Z,74.9997
2023-04-26T06:33:47.419Z,75.0196
2023-04-26T06:34:48.607Z,75.0283
2023-04-26T06:35:49.107Z,75.0296
2023-04-26T06:36:49.760Z,75.0243
2023-04-26T06:37:50.939Z,75.0089
2023-04-26T06:38:51.520Z,74.9873
2023-04-26T06:39:52.329Z,74.9692
2023-04-26T06:40:53.206Z,74.9569
2023-04-26T06:41:53.757Z,74.9426
2023-04-26T06:42:54.476Z,74.9311
2023-04-26T06:43:55.412Z,74.9191
2023-04-26T06:44:55.232Z,74.9057
2023-04-26T06:45:55.203Z,74.8888
2023-04-26T06:46:56.032Z,74.8670
2023-04-26T06:47:57.191Z,74.8314
2023-04-26T06:48:57.984Z,74.7885
2023-04-26T06:49:58.639Z,74.7471
2023-04-26T06:50:59.298Z,74.7148
2023-04-26T06:51:59.936Z,74.7008
2023-04-26T06:53:01.185Z,74.6945
2023-04-26T06:54:01.914Z,74.6867
2023-04-26T06:55:03.427Z,74.6759
2023-04-26T06:56:04.019Z,74.6589
2023-04-26T06:57:04.634Z,74.6405
2023-04-26T06:58:05.130Z,74.6392
2023-04-26T06:59:05.838Z,74.6483
2023-04-26T07:00:06.563Z,74.6543
2023-04-26T07:01:07.033Z,74.6584
2023-04-26T07:02:08.136Z,74.6514
2023-04-26T07:03:08.707Z,74.6381
2023-04-26T07:04:09.964Z,74.6067
2023-04-26T07:05:11.019Z,74.5922
2023-04-26T07:06:12.252Z,74.5600
2023-04-26T07:07:13.762Z,74.5399
2023-04-26T07:08:13.420Z,74.5489
2023-04-26T07:09:14.100Z,74.5639
2023-04-26T07:10:14.796Z,74.5750
2023-04-26T07:11:15.473Z,74.5691
2023-04-26T07:12:16.464Z,74.5554
2023-04-26T07:13:17.090Z,74.5287
2023-04-26T07:14:17.764Z,74.5099
2023-04-26T07:15:18.731Z,74.4934
2023-04-26T07:16:19.483Z,74.4825
2023-04-26T07:17:20.418Z,74.4776
2023-04-26T07:18:21.276Z,74.4809
2023-04-26T07:19:21.935Z,74.4758
2023-04-26T07:20:22.498Z,74.4735
2023-04-26T07:21:23.231Z,74.4762
2023-04-26T07:22:23.855Z,74.4817
2023-04-26T07:23:24.580Z,74.4855
2023-04-26T07:24:25.297Z,74.4850
2023-04-26T07:25:25.747Z,74.4755
2023-04-26T07:26:26.658Z,74.4655
2023-04-26T07:27:26.403Z,74.4509
2023-04-26T07:28:26.877Z,74.4345
2023-04-26T07:29:27.614Z,74.4249
2023-04-26T07:30:28.459Z,74.4052
2023-04-26T07:31:28.786Z,74.3759
2023-04-26T07:32:29.740Z,74.3313
2023-04-26T07:33:31.662Z,74.2843
2023-04-26T07:34:31.931Z,74.2592
2023-04-26T07:35:32.901Z,74.2302
2023-04-26T07:36:33.299Z,74.2024
2023-04-26T07:37:33.775Z,74.1723
2023-04-26T07:38:34.359Z,74.1361
2023-04-26T07:39:34.815Z,74.1065
2023-04-26T07:40:35.770Z,74.0782
2023-04-26T07:41:36.683Z,74.0391
2023-04-26T07:42:37.834Z,74.0094
2023-04-26T07:43:38.633Z,74.0107
2023-04-26T07:44:39.081Z,73.9755
2023-04-26T07:45:39.819Z,73.9468
2023-04-26T07:46:40.885Z,73.9198
2023-04-26T07:47:41.374Z,73.8897
2023-04-26T07:48:42.125Z,73.8570
2023-04-26T07:49:42.677Z,73.8227
2023-04-26T07:50:43.309Z,73.8052
2023-04-26T07:51:44.082Z,73.8025
2023-04-26T07:52:44.534Z,73.8129
2023-04-26T07:53:45.188Z,73.8276
2023-04-26T07:54:45.442Z,73.8419
2023-04-26T07:55:45.927Z,73.8519
2023-04-26T07:56:46.682Z,73.8624
2023-04-26T07:57:47.193Z,73.8800
2023-04-26T07:58:47.881Z,73.8871
2023-04-26T07:59:48.660Z,73.8851
2023-04-26T08:00:49.116Z,73.8631
2023-04-26T08:01:49.852Z,73.8265
2023-04-26T08:02:50.947Z,73.7838
2023-04-26T08:03:51.381Z,73.7457
2023-04-26T08:04:52.463Z,73.7187
2023-04-26T08:05:53.369Z,73.7233
2023-04-26T08:06:53.328Z,73.7382
2023-04-26T08:07:53.868Z,73.7417
2023-04-26T08:08:54.585Z,73.7501
2023-04-26T08:09:55.507Z,73.7628
2023-04-26T08:10:56.042Z,73.7837
2023-04-26T08:11:56.895Z,73.8250
2023-04-26T08:12:57.632Z,73.8665
2023-04-26T08:13:57.892Z,73.9188
2023-04-26T08:14:58.509Z,73.9744
2023-04-26T08:15:59.437Z,74.0130
2023-04-26T08:17:00.269Z,74.0300
2023-04-26T08:18:00.476Z,74.0530
2023-04-26T08:19:01.422Z,74.0562
2023-04-26T08:20:02.203Z,74.0528
2023-04-26T08:21:02.807Z,74.0300
2023-04-26T08:22:03.438Z,74.0057
2023-04-26T08:23:04.169Z,73.9939
2023-04-26T08:24:05.335Z,73.9881
2023-04-26T08:25:06.092Z,73.9950
2023-04-26T08:26:06.796Z,73.9964
2023-04-26T08:27:07.350Z,73.9976
2023-04-26T08:28:08.132Z,74.0024
2023-04-26T08:29:08.812Z,74.0069
2023-04-26T08:30:09.702Z,74.0169
2023-04-26T08:31:09.948Z,74.0308
2023-04-26T08:32:10.843Z,74.0560
2023-04-26T08:33:11.908Z,74.0777
2023-04-26T08:34:12.656Z,74.0882
2023-04-26T08:35:13.164Z,74.0960
2023-04-26T08:36:13.821Z,74.1208
2023-04-26T08:37:14.261Z,74.1466
2023-04-26T08:38:14.915Z,74.1594
2023-04-26T08:39:15.675Z,74.1676
2023-04-26T08:40:16.338Z,74.1838
2023-04-26T08:41:17.057Z,74.1929
2023-04-26T08:42:17.730Z,74.1946
2023-04-26T08:43:18.367Z,74.1978
2023-04-26T08:44:19.062Z,74.2032
2023-04-26T08:45:19.551Z,74.2036
2023-04-26T08:46:20.272Z,74.1963
2023-04-26T08:47:21.133Z,74.1836
2023-04-26T08:48:22.344Z,74.1790
2023-04-26T08:49:23.042Z,74.1675
2023-04-26T08:50:23.811Z,74.1538
2023-04-26T08:51:24.364Z,74.1560
2023-04-26T08:52:24.725Z,74.1620
2023-04-26T08:53:25.270Z,74.1795
2023-04-26T08:54:26.042Z,74.1962
2023-04-26T08:55:26.677Z,74.2179
2023-04-26T08:56:27.138Z,74.2366
2023-04-26T08:57:27.879Z,74.2564
2023-04-26T08:58:28.573Z,74.2713
2023-04-26T08:59:29.039Z,74.2819
2023-04-26T09:00:29.772Z,74.2923
2023-04-26T09:01:30.337Z,74.2952
2023-04-26T09:02:31.102Z,74.2952
2023-04-26T09:03:31.658Z,74.3011
2023-04-26T09:04:32.503Z,74.3133
2023-04-26T09:05:33.268Z,74.3239
2023-04-26T09:06:34.258Z,74.3470
2023-04-26T09:07:34.944Z,74.3747
2023-04-26T09:08:35.627Z,74.4015
2023-04-26T09:09:36.615Z,74.4149
2023-04-26T09:10:37.427Z,74.4214
2023-04-26T09:11:38.128Z,74.4086
2023-04-26T09:12:38.696Z,74.3855
2023-04-26T09:13:39.452Z,74.3578
2023-04-26T09:14:39.985Z,74.3156
2023-04-26T09:15:40.810Z,74.2673
2023-04-26T09:16:42.031Z,74.2134
2023-04-26T09:17:42.864Z,74.1616
2023-04-26T09:18:44.152Z,74.1019
2023-04-26T09:19:44.933Z,74.0341
2023-04-26T09:20:45.271Z,73.9706
2023-04-26T09:21:45.993Z,73.9053
2023-04-26T09:22:46.701Z,73.8348
2023-04-26T09:23:47.279Z,73.7681
2023-04-26T09:24:48.035Z,73.7071
2023-04-26T09:25:48.579Z,73.6499
2023-04-26T09:26:49.326Z,73.5850
2023-04-26T09:27:49.966Z,73.5230
2023-04-26T09:28:50.663Z,73.4590
2023-04-26T09:29:51.027Z,73.3955
2023-04-26T09:30:51.512Z,73.3217
2023-04-26T09:31:52.943Z,73.2435
2023-04-26T09:32:53.834Z,73.1607
2023-04-26T09:33:54.903Z,73.0747
2023-04-26T09:34:55.530Z,72.9758
2023-04-26T09:35:56.142Z,72.8652
2023-04-26T09:36:56.625Z,72.7349
2023-04-26T09:38:01.123Z,72.6028
2023-04-26T09:38:58.552Z,72.4557
2023-04-26T09:39:59.247Z,72.3099
2023-04-26T09:40:59.967Z,72.1810
2023-04-26T09:42:00.446Z,72.0689
2023-04-26T09:43:01.162Z,71.9626
2023-04-26T09:44:01.997Z,71.8601
2023-04-26T09:45:02.651Z,71.7580
2023-04-26T09:46:03.384Z,71.6658
2023-04-26T09:47:04.382Z,71.5677
2023-04-26T09:48:04.306Z,71.4723
2023-04-26T09:49:04.453Z,71.3896
2023-04-26T09:50:05.137Z,71.3485
2023-04-26T09:51:05.901Z,71.3176
2023-04-26T09:52:06.606Z,71.2896
2023-04-26T09:53:07.083Z,71.2521
2023-04-26T09:54:07.740Z,71.2221
2023-04-26T09:55:09.177Z,71.1847
2023-04-26T09:56:08.556Z,71.1656
2023-04-26T09:57:09.450Z,71.1331
2023-04-26T09:58:09.953Z,71.1227
2023-04-26T09:59:10.171Z,71.1232
2023-04-26T10:00:10.806Z,71.1355
2023-04-26T10:01:11.458Z,71.1557
2023-04-26T10:02:12.368Z,71.1742
2023-04-26T10:03:14.173Z,71.2002
2023-04-26T10:04:14.545Z,71.2327
2023-04-26T10:05:15.506Z,71.2681
2023-04-26T10:06:16.181Z,71.3144
2023-04-26T10:07:16.638Z,71.3573
2023-04-26T10:08:17.388Z,71.4029
2023-04-26T10:09:18.500Z,71.4436
2023-04-26T10:10:19.273Z,71.4814
2023-04-26T10:11:20.025Z,71.5153
2023-04-26T10:12:20.763Z,71.5437
2023-04-26T10:13:21.434Z,71.5484
2023-04-26T10:14:22.187Z,71.5727
2023-04-26T10:15:22.752Z,71.6492
2023-04-26T10:16:23.510Z,71.6915
2023-04-26T10:17:24.354Z,71.7016
2023-04-26T10:18:25.156Z,71.7092
2023-04-26T10:19:25.986Z,71.6861
2023-04-26T10:20:26.689Z,71.6492
2023-04-26T10:21:27.438Z,71.5957
2023-04-26T10:22:28.082Z,71.5443
2023-04-26T10:23:28.588Z,71.5069
2023-04-26T10:24:29.433Z,71.4766
2023-04-26T10:25:29.990Z,71.4595
2023-04-26T10:26:30.667Z,71.4530
2023-04-26T10:27:31.393Z,71.4462
2023-04-26T10:28:32.001Z,71.4263
2023-04-26T10:29:32.635Z,71.4030
2023-04-26T10:30:33.401Z,71.3525
2023-04-26T10:31:34.152Z,71.2757
2023-04-26T10:32:35.162Z,71.1711
2023-04-26T10:33:36.479Z,71.0836
2023-04-26T10:34:37.064Z,70.9838
2023-04-26T10:35:37.924Z,70.8594
2023-04-26T10:36:38.387Z,70.7161
2023-04-26T10:37:39.004Z,70.5865
2023-04-26T10:38:39.960Z,70.4676
2023-04-26T10:40:45.821Z,70.2105
2023-04-26T10:41:46.796Z,70.0884
2023-04-26T10:42:47.786Z,69.9504
2023-04-26T10:43:48.507Z,69.7961
2023-04-26T10:44:49.623Z,69.6352
2023-04-26T10:45:50.407Z,69.4588
2023-04-26T10:47:51.131Z,69.1373
2023-04-26T10:48:52.088Z,69.0015
2023-04-26T10:49:52.250Z,68.8866
2023-04-26T10:50:52.882Z,68.7920
2023-04-26T10:51:53.585Z,68.7041
2023-04-26T10:52:54.128Z,68.6178
2023-04-26T10:53:55.570Z,68.5266
2023-04-26T10:54:55.467Z,68.4507
2023-04-26T10:55:56.088Z,68.3871
2023-04-26T10:56:56.785Z,68.3302
2023-04-26T10:57:57.610Z,68.2797
2023-04-26T10:58:58.237Z,68.2225
2023-04-26T10:59:59.064Z,68.1899
2023-04-26T11:01:00.091Z,68.1240
2023-04-26T11:02:00.151Z,68.0550
2023-04-26T11:03:01.301Z,67.9890
2023-04-26T11:04:02.537Z,67.9223
2023-04-26T11:05:03.578Z,67.8763
2023-04-26T11:06:04.196Z,67.8578
2023-04-26T11:07:05.197Z,67.8422
2023-04-26T11:08:05.722Z,67.8290
2023-04-26T11:09:06.754Z,67.8181
2023-04-26T11:10:07.534Z,67.8072
2023-04-26T11:11:08.025Z,67.7993
2023-04-26T11:12:08.645Z,67.7884
2023-04-26T11:13:09.311Z,67.7910
2023-04-26T11:14:09.923Z,67.7950
2023-04-26T11:15:10.663Z,67.7796
2023-04-26T11:16:11.592Z,67.7504
2023-04-26T11:17:12.646Z,67.7013
2023-04-26T11:18:13.529Z,67.6740
2023-04-26T11:19:14.196Z,67.6109
2023-04-26T11:20:14.982Z,67.5727
2023-04-26T11:21:15.797Z,67.4808
2023-04-26T11:22:16.606Z,67.3274
2023-04-26T11:23:17.237Z,67.1854
2023-04-26T11:24:17.695Z,67.0956
2023-04-26T11:25:18.365Z,67.0064
2023-04-26T11:26:19.084Z,66.9260
2023-04-26T11:27:19.562Z,66.8259
2023-04-26T11:28:20.333Z,66.6960
2023-04-26T11:29:20.816Z,66.5197
2023-04-26T11:30:21.460Z,66.3153
2023-04-26T11:31:22.819Z,66.1316
2023-04-26T11:32:23.853Z,65.9646
2023-04-26T11:33:24.817Z,65.7939
2023-04-26T11:34:25.450Z,65.6397
2023-04-26T11:35:25.942Z,65.4959
2023-04-26T11:36:26.585Z,65.3500
2023-04-26T11:37:27.048Z,65.2020
2023-04-26T11:38:27.628Z,65.0486
2023-04-26T11:39:28.712Z,64.8932
2023-04-26T11:40:29.216Z,64.7156
2023-04-26T11:41:29.920Z,64.5308
2023-04-26T11:42:30.625Z,64.3820
2023-04-26T11:43:31.260Z,64.2302
2023-04-26T11:44:32.459Z,64.0811
2023-04-26T11:45:32.987Z,63.9617
2023-04-26T11:46:33.734Z,63.8444
2023-04-26T11:47:34.634Z,63.7109
2023-04-26T11:48:35.419Z,63.5984
2023-04-26T11:49:36.245Z,63.4925
2023-04-26T11:50:36.932Z,63.3674
2023-04-26T11:51:37.673Z,63.2087
2023-04-26T11:52:38.255Z,63.0221
2023-04-26T11:53:38.747Z,62.8403
2023-04-26T11:54:39.731Z,62.8534
2023-04-26T11:55:40.446Z,62.9058
2023-04-26T11:56:41.018Z,62.9705
2023-04-26T11:57:41.810Z,63.0408
2023-04-26T11:58:42.808Z,63.0882
2023-04-26T11:59:43.944Z,63.1099
2023-04-26T12:00:43.769Z,63.1132
2023-04-26T12:01:44.691Z,63.1140
2023-04-26T12:02:46.015Z,63.1190
2023-04-26T12:03:47.354Z,63.1157
2023-04-26T12:04:47.987Z,63.1019
2023-04-26T12:05:48.268Z,63.0640
2023-04-26T12:06:49.286Z,63.0072
2023-04-26T12:07:50.266Z,62.9635
2023-04-26T12:08:51.506Z,62.9457
2023-04-26T12:09:52.092Z,62.7566
2023-04-26T12:10:52.273Z,61.7514
2023-04-26T12:11:52.738Z,60.5083
2023-04-26T12:12:53.909Z,59.9970
2023-04-26T12:13:54.632Z,59.8557
2023-04-26T12:14:55.274Z,59.7888
2023-04-26T12:15:55.399Z,59.7452
2023-04-26T12:16:55.861Z,59.9790
2023-04-26T12:17:56.242Z,60.0385
2023-04-26T12:18:56.283Z,60.1390
2023-04-26T12:19:57.129Z,60.2800
2023-04-26T12:20:57.981Z,60.4515
2023-04-26T12:21:58.013Z,60.6059
2023-04-26T12:22:58.837Z,60.7363
2023-04-26T12:23:59.588Z,60.8675
2023-04-26T12:25:00.485Z,60.9950
2023-04-26T12:26:01.257Z,61.1041
2023-04-26T12:27:02.668Z,61.2047
2023-04-26T12:28:02.550Z,61.2902
2023-04-26T12:29:03.468Z,61.3226
2023-04-26T12:30:04.205Z,61.2921
2023-04-26T12:31:05.060Z,61.1593
2023-04-26T12:32:05.650Z,61.0589
2023-04-26T12:33:16.400Z,60.9910
2023-04-26T12:34:06.437Z,61.0054
2023-04-26T12:35:07.131Z,61.0466
2023-04-26T12:36:07.812Z,60.9094
2023-04-26T12:37:08.353Z,60.3273
2023-04-26T12:38:09.003Z,60.0388
2023-04-26T12:39:09.487Z,59.9118
2023-04-26T12:40:09.584Z,59.8590
2023-04-26T12:41:10.260Z,59.8493
2023-04-26T12:42:10.966Z,59.8648
2023-04-26T12:43:11.744Z,59.8965
2023-04-26T12:44:12.458Z,59.9239
2023-04-26T12:45:12.964Z,59.8599
2023-04-26T12:46:13.919Z,59.4610